sensor_id;sensor_type;location;lat;lon;timestamp;temperature;humidity
68215;DHT22;55036;52.138;5.236;2022-12-18T00:01:27;-1.00;82.80
68215;DHT22;55036;52.138;5.236;2022-12-18T00:03:56;-1.10;83.20
68215;DHT22;55036;52.138;5.236;2022-12-18T00:06:24;-1.20;83.30
68215;DHT22;55036;52.138;5.236;2022-12-18T00:08:51;-1.20;83.50
68215;DHT22;55036;52.138;5.236;2022-12-18T00:11:20;-1.20;83.60
68215;DHT22;55036;52.138;5.236;2022-12-18T00:13:47;-1.20;83.40
68215;DHT22;55036;52.138;5.236;2022-12-18T00:16:17;-1.10;83.50
68215;DHT22;55036;52.138;5.236;2022-12-18T00:18:47;-1.10;83.30
68215;DHT22;55036;52.138;5.236;2022-12-18T00:21:14;-1.10;83.00
68215;DHT22;55036;52.138;5.236;2022-12-18T00:23:42;-1.20;82.90
68215;DHT22;55036;52.138;5.236;2022-12-18T00:26:19;-1.20;83.00
68215;DHT22;55036;52.138;5.236;2022-12-18T00:28:46;-1.30;83.00
68215;DHT22;55036;52.138;5.236;2022-12-18T00:31:15;-1.20;83.10
68215;DHT22;55036;52.138;5.236;2022-12-18T00:33:42;-1.20;82.80
68215;DHT22;55036;52.138;5.236;2022-12-18T00:36:12;-1.20;82.80
68215;DHT22;55036;52.138;5.236;2022-12-18T00:38:40;-1.20;82.70
68215;DHT22;55036;52.138;5.236;2022-12-18T00:41:08;-1.30;82.60
68215;DHT22;55036;52.138;5.236;2022-12-18T00:43:36;-1.40;82.50
68215;DHT22;55036;52.138;5.236;2022-12-18T00:46:04;-1.50;83.10
68215;DHT22;55036;52.138;5.236;2022-12-18T00:48:32;-1.40;83.00
68215;DHT22;55036;52.138;5.236;2022-12-18T00:50:59;-1.40;82.80
68215;DHT22;55036;52.138;5.236;2022-12-18T00:53:25;-1.40;82.50
68215;DHT22;55036;52.138;5.236;2022-12-18T00:55:52;-1.50;82.90
68215;DHT22;55036;52.138;5.236;2022-12-18T00:58:18;-1.50;83.00
68215;DHT22;55036;52.138;5.236;2022-12-18T01:00:45;-1.40;82.70
68215;DHT22;55036;52.138;5.236;2022-12-18T01:03:13;-1.40;82.80
68215;DHT22;55036;52.138;5.236;2022-12-18T01:05:41;-1.50;82.80
68215;DHT22;55036;52.138;5.236;2022-12-18T01:08:08;-1.50;82.90
68215;DHT22;55036;52.138;5.236;2022-12-18T01:10:35;-1.50;83.10
68215;DHT22;55036;52.138;5.236;2022-12-18T01:13:02;-1.50;83.10
68215;DHT22;55036;52.138;5.236;2022-12-18T01:15:29;-1.50;82.90
68215;DHT22;55036;52.138;5.236;2022-12-18T01:17:55;-1.40;83.00
68215;DHT22;55036;52.138;5.236;2022-12-18T01:20:22;-1.40;82.70
68215;DHT22;55036;52.138;5.236;2022-12-18T01:22:49;-1.50;82.70
68215;DHT22;55036;52.138;5.236;2022-12-18T01:25:15;-1.40;82.70
68215;DHT22;55036;52.138;5.236;2022-12-18T01:27:42;-1.50;82.50
68215;DHT22;55036;52.138;5.236;2022-12-18T01:30:09;-1.40;82.50
68215;DHT22;55036;52.138;5.236;2022-12-18T01:32:36;-1.50;82.40
68215;DHT22;55036;52.138;5.236;2022-12-18T01:35:03;-1.40;82.40
68215;DHT22;55036;52.138;5.236;2022-12-18T01:37:30;-1.50;82.30
68215;DHT22;55036;52.138;5.236;2022-12-18T01:39:57;-1.50;82.50
68215;DHT22;55036;52.138;5.236;2022-12-18T01:42:23;-1.50;82.40
68215;DHT22;55036;52.138;5.236;2022-12-18T01:44:59;-1.50;82.10
68215;DHT22;55036;52.138;5.236;2022-12-18T01:47:36;-1.50;82.10
68215;DHT22;55036;52.138;5.236;2022-12-18T01:50:11;-1.50;82.40
68215;DHT22;55036;52.138;5.236;2022-12-18T01:52:45;-1.50;82.20
68215;DHT22;55036;52.138;5.236;2022-12-18T01:55:15;-1.50;82.00
68215;DHT22;55036;52.138;5.236;2022-12-18T01:57:42;-1.50;82.20
68215;DHT22;55036;52.138;5.236;2022-12-18T02:00:14;-1.60;82.00
68215;DHT22;55036;52.138;5.236;2022-12-18T02:02:43;-1.60;82.40
68215;DHT22;55036;52.138;5.236;2022-12-18T02:05:12;-1.60;82.10
68215;DHT22;55036;52.138;5.236;2022-12-18T02:08:01;-1.60;82.50
68215;DHT22;55036;52.138;5.236;2022-12-18T02:18:50;-1.70;82.30
68215;DHT22;55036;52.138;5.236;2022-12-18T02:24:23;-1.70;81.20
68215;DHT22;55036;52.138;5.236;2022-12-18T02:27:02;-1.80;82.10
68215;DHT22;55036;52.138;5.236;2022-12-18T02:29:43;-1.70;82.00
68215;DHT22;55036;52.138;5.236;2022-12-18T02:32:15;-1.70;81.80
68215;DHT22;55036;52.138;5.236;2022-12-18T02:34:43;-1.70;81.90
68215;DHT22;55036;52.138;5.236;2022-12-18T02:37:14;-1.70;81.80
68215;DHT22;55036;52.138;5.236;2022-12-18T02:39:44;-1.70;81.70
68215;DHT22;55036;52.138;5.236;2022-12-18T02:42:12;-1.70;81.60
68215;DHT22;55036;52.138;5.236;2022-12-18T02:47:15;-1.70;81.70
68215;DHT22;55036;52.138;5.236;2022-12-18T02:49:58;-1.70;81.70
68215;DHT22;55036;52.138;5.236;2022-12-18T02:52:44;-1.80;81.60
68215;DHT22;55036;52.138;5.236;2022-12-18T02:57:55;-1.80;81.30
68215;DHT22;55036;52.138;5.236;2022-12-18T03:00:29;-1.90;81.30
68215;DHT22;55036;52.138;5.236;2022-12-18T03:03:17;-1.90;81.20
68215;DHT22;55036;52.138;5.236;2022-12-18T03:05:53;-1.90;81.10
68215;DHT22;55036;52.138;5.236;2022-12-18T03:08:29;-2.00;81.10
68215;DHT22;55036;52.138;5.236;2022-12-18T03:11:11;-2.00;81.10
68215;DHT22;55036;52.138;5.236;2022-12-18T03:16:11;-2.10;80.80
68215;DHT22;55036;52.138;5.236;2022-12-18T03:18:45;-2.10;80.70
68215;DHT22;55036;52.138;5.236;2022-12-18T03:21:14;-2.10;80.50
68215;DHT22;55036;52.138;5.236;2022-12-18T03:23:48;-2.10;80.40
68215;DHT22;55036;52.138;5.236;2022-12-18T03:26:19;-2.20;80.50
68215;DHT22;55036;52.138;5.236;2022-12-18T03:28:51;-2.20;80.60
68215;DHT22;55036;52.138;5.236;2022-12-18T03:31:22;-2.20;80.50
68215;DHT22;55036;52.138;5.236;2022-12-18T03:33:54;-2.20;80.40
68215;DHT22;55036;52.138;5.236;2022-12-18T03:36:22;-2.30;80.30
68215;DHT22;55036;52.138;5.236;2022-12-18T03:38:49;-2.30;80.40
68215;DHT22;55036;52.138;5.236;2022-12-18T03:41:31;-2.30;80.30
68215;DHT22;55036;52.138;5.236;2022-12-18T03:44:26;-2.30;80.30
68215;DHT22;55036;52.138;5.236;2022-12-18T03:52:21;-2.40;79.90
68215;DHT22;55036;52.138;5.236;2022-12-18T03:54:51;-2.40;80.00
68215;DHT22;55036;52.138;5.236;2022-12-18T03:57:20;-2.50;79.70
68215;DHT22;55036;52.138;5.236;2022-12-18T03:59:54;-2.50;79.70
68215;DHT22;55036;52.138;5.236;2022-12-18T04:02:23;-2.60;79.40
68215;DHT22;55036;52.138;5.236;2022-12-18T04:04:57;-2.60;79.60
68215;DHT22;55036;52.138;5.236;2022-12-18T04:07:24;-2.70;79.60
68215;DHT22;55036;52.138;5.236;2022-12-18T04:09:54;-2.70;79.60
68215;DHT22;55036;52.138;5.236;2022-12-18T04:12:26;-2.70;79.70
68215;DHT22;55036;52.138;5.236;2022-12-18T04:14:53;-2.80;79.40
68215;DHT22;55036;52.138;5.236;2022-12-18T04:17:20;-2.80;79.30
68215;DHT22;55036;52.138;5.236;2022-12-18T04:19:46;-2.80;79.30
68215;DHT22;55036;52.138;5.236;2022-12-18T04:22:13;-2.80;79.20
68215;DHT22;55036;52.138;5.236;2022-12-18T04:24:40;-2.80;79.20
68215;DHT22;55036;52.138;5.236;2022-12-18T04:27:06;-2.80;79.20
68215;DHT22;55036;52.138;5.236;2022-12-18T04:29:33;-2.80;78.90
68215;DHT22;55036;52.138;5.236;2022-12-18T04:32:00;-2.90;78.60
68215;DHT22;55036;52.138;5.236;2022-12-18T04:34:27;-2.90;78.50
68215;DHT22;55036;52.138;5.236;2022-12-18T04:36:53;-2.90;78.80
68215;DHT22;55036;52.138;5.236;2022-12-18T04:39:20;-3.00;78.80
68215;DHT22;55036;52.138;5.236;2022-12-18T04:41:47;-3.00;78.50
68215;DHT22;55036;52.138;5.236;2022-12-18T04:44:14;-3.00;78.60
68215;DHT22;55036;52.138;5.236;2022-12-18T04:46:41;-3.00;78.70
68215;DHT22;55036;52.138;5.236;2022-12-18T04:49:08;-3.00;78.60
68215;DHT22;55036;52.138;5.236;2022-12-18T04:51:37;-3.00;78.70
68215;DHT22;55036;52.138;5.236;2022-12-18T04:54:03;-3.00;78.70
68215;DHT22;55036;52.138;5.236;2022-12-18T04:56:31;-3.00;78.70
68215;DHT22;55036;52.138;5.236;2022-12-18T04:58:58;-3.10;78.40
68215;DHT22;55036;52.138;5.236;2022-12-18T05:01:24;-3.10;78.40
68215;DHT22;55036;52.138;5.236;2022-12-18T05:04:00;-3.10;78.60
68215;DHT22;55036;52.138;5.236;2022-12-18T05:06:26;-3.10;78.60
68215;DHT22;55036;52.138;5.236;2022-12-18T05:08:53;-3.10;78.70
68215;DHT22;55036;52.138;5.236;2022-12-18T05:11:20;-3.10;78.70
68215;DHT22;55036;52.138;5.236;2022-12-18T05:13:46;-3.10;78.70
68215;DHT22;55036;52.138;5.236;2022-12-18T05:16:14;-3.20;78.60
68215;DHT22;55036;52.138;5.236;2022-12-18T05:18:41;-3.20;78.60
68215;DHT22;55036;52.138;5.236;2022-12-18T05:21:08;-3.20;78.50
68215;DHT22;55036;52.138;5.236;2022-12-18T05:23:35;-3.20;78.50
68215;DHT22;55036;52.138;5.236;2022-12-18T05:26:05;-3.20;78.10
68215;DHT22;55036;52.138;5.236;2022-12-18T05:28:34;-3.30;78.00
68215;DHT22;55036;52.138;5.236;2022-12-18T05:31:02;-3.30;78.00
68215;DHT22;55036;52.138;5.236;2022-12-18T05:33:32;-3.30;78.10
68215;DHT22;55036;52.138;5.236;2022-12-18T05:36:01;-3.30;78.00
68215;DHT22;55036;52.138;5.236;2022-12-18T05:38:29;-3.30;78.20
68215;DHT22;55036;52.138;5.236;2022-12-18T05:40:56;-3.30;78.20
68215;DHT22;55036;52.138;5.236;2022-12-18T05:43:24;-3.30;78.30
68215;DHT22;55036;52.138;5.236;2022-12-18T05:45:52;-3.30;78.30
68215;DHT22;55036;52.138;5.236;2022-12-18T05:48:19;-3.20;78.20
68215;DHT22;55036;52.138;5.236;2022-12-18T05:50:47;-3.20;78.10
68215;DHT22;55036;52.138;5.236;2022-12-18T05:53:18;-3.30;78.10
68215;DHT22;55036;52.138;5.236;2022-12-18T05:55:46;-3.30;78.00
68215;DHT22;55036;52.138;5.236;2022-12-18T05:58:14;-3.30;77.90
68215;DHT22;55036;52.138;5.236;2022-12-18T06:00:43;-3.30;78.10
68215;DHT22;55036;52.138;5.236;2022-12-18T06:03:11;-3.30;78.20
68215;DHT22;55036;52.138;5.236;2022-12-18T06:05:43;-3.30;78.20
68215;DHT22;55036;52.138;5.236;2022-12-18T06:08:12;-3.30;78.10
68215;DHT22;55036;52.138;5.236;2022-12-18T06:10:40;-3.40;77.80
68215;DHT22;55036;52.138;5.236;2022-12-18T06:13:07;-3.40;77.70
68215;DHT22;55036;52.138;5.236;2022-12-18T06:15:36;-3.40;77.90
68215;DHT22;55036;52.138;5.236;2022-12-18T06:18:03;-3.50;77.80
68215;DHT22;55036;52.138;5.236;2022-12-18T06:20:30;-3.50;77.60
68215;DHT22;55036;52.138;5.236;2022-12-18T06:22:59;-3.50;77.60
68215;DHT22;55036;52.138;5.236;2022-12-18T06:25:26;-3.50;77.80
68215;DHT22;55036;52.138;5.236;2022-12-18T06:27:52;-3.50;77.50
68215;DHT22;55036;52.138;5.236;2022-12-18T06:30:19;-3.50;77.70
68215;DHT22;55036;52.138;5.236;2022-12-18T06:32:48;-3.60;77.50
68215;DHT22;55036;52.138;5.236;2022-12-18T06:35:21;-3.60;77.40
68215;DHT22;55036;52.138;5.236;2022-12-18T06:37:48;-3.50;77.70
68215;DHT22;55036;52.138;5.236;2022-12-18T06:40:15;-3.50;77.80
68215;DHT22;55036;52.138;5.236;2022-12-18T06:42:42;-3.60;77.50
68215;DHT22;55036;52.138;5.236;2022-12-18T06:45:09;-3.60;77.50
68215;DHT22;55036;52.138;5.236;2022-12-18T06:47:35;-3.60;77.60
68215;DHT22;55036;52.138;5.236;2022-12-18T06:50:02;-3.60;77.70
68215;DHT22;55036;52.138;5.236;2022-12-18T06:52:31;-3.60;77.80
68215;DHT22;55036;52.138;5.236;2022-12-18T06:54:58;-3.70;77.60
68215;DHT22;55036;52.138;5.236;2022-12-18T06:57:25;-3.70;77.60
68215;DHT22;55036;52.138;5.236;2022-12-18T06:59:52;-3.70;77.50
68215;DHT22;55036;52.138;5.236;2022-12-18T07:02:18;-3.70;77.40
68215;DHT22;55036;52.138;5.236;2022-12-18T07:04:45;-3.70;77.40
68215;DHT22;55036;52.138;5.236;2022-12-18T07:07:12;-3.70;77.20
68215;DHT22;55036;52.138;5.236;2022-12-18T07:09:38;-3.70;77.60
68215;DHT22;55036;52.138;5.236;2022-12-18T07:12:05;-3.70;77.50
68215;DHT22;55036;52.138;5.236;2022-12-18T07:14:33;-3.70;77.50
68215;DHT22;55036;52.138;5.236;2022-12-18T07:17:00;-3.70;77.40
68215;DHT22;55036;52.138;5.236;2022-12-18T07:19:27;-3.70;77.40
68215;DHT22;55036;52.138;5.236;2022-12-18T07:21:54;-3.70;77.40
68215;DHT22;55036;52.138;5.236;2022-12-18T07:24:21;-3.70;77.30
68215;DHT22;55036;52.138;5.236;2022-12-18T07:26:48;-3.70;77.30
68215;DHT22;55036;52.138;5.236;2022-12-18T07:29:14;-3.70;78.20
68215;DHT22;55036;52.138;5.236;2022-12-18T07:31:41;-3.70;77.20
68215;DHT22;55036;52.138;5.236;2022-12-18T07:34:12;-3.70;77.40
68215;DHT22;55036;52.138;5.236;2022-12-18T07:36:39;-3.70;77.30
68215;DHT22;55036;52.138;5.236;2022-12-18T07:39:05;-3.60;77.50
68215;DHT22;55036;52.138;5.236;2022-12-18T07:41:32;-3.70;77.30
68215;DHT22;55036;52.138;5.236;2022-12-18T07:43:59;-3.70;77.10
68215;DHT22;55036;52.138;5.236;2022-12-18T07:46:25;-3.70;77.20
68215;DHT22;55036;52.138;5.236;2022-12-18T07:48:52;-3.70;77.40
68215;DHT22;55036;52.138;5.236;2022-12-18T07:51:19;-3.70;77.40
68215;DHT22;55036;52.138;5.236;2022-12-18T07:53:46;-3.70;77.40
68215;DHT22;55036;52.138;5.236;2022-12-18T07:56:18;-3.60;77.60
68215;DHT22;55036;52.138;5.236;2022-12-18T07:58:55;-3.60;77.60
68215;DHT22;55036;52.138;5.236;2022-12-18T08:01:22;-3.60;77.50
68215;DHT22;55036;52.138;5.236;2022-12-18T08:03:49;-3.60;77.40
68215;DHT22;55036;52.138;5.236;2022-12-18T08:06:18;-3.60;77.60
68215;DHT22;55036;52.138;5.236;2022-12-18T08:08:48;-3.50;77.80
68215;DHT22;55036;52.138;5.236;2022-12-18T08:11:15;-3.50;77.70
68215;DHT22;55036;52.138;5.236;2022-12-18T08:13:42;-3.50;77.90
68215;DHT22;55036;52.138;5.236;2022-12-18T08:16:09;-3.50;77.70
68215;DHT22;55036;52.138;5.236;2022-12-18T08:18:36;-3.40;78.10
68215;DHT22;55036;52.138;5.236;2022-12-18T08:21:11;-3.40;78.20
68215;DHT22;55036;52.138;5.236;2022-12-18T08:23:38;-3.30;78.00
68215;DHT22;55036;52.138;5.236;2022-12-18T08:26:13;-3.30;78.10
68215;DHT22;55036;52.138;5.236;2022-12-18T08:28:40;-3.30;78.70
68215;DHT22;55036;52.138;5.236;2022-12-18T08:31:08;-3.20;78.60
68215;DHT22;55036;52.138;5.236;2022-12-18T08:33:36;-3.10;78.30
68215;DHT22;55036;52.138;5.236;2022-12-18T08:36:05;-3.10;78.10
68215;DHT22;55036;52.138;5.236;2022-12-18T08:38:32;-3.00;78.20
68215;DHT22;55036;52.138;5.236;2022-12-18T08:41:04;-3.00;78.20
68215;DHT22;55036;52.138;5.236;2022-12-18T08:43:31;-2.90;78.30
68215;DHT22;55036;52.138;5.236;2022-12-18T08:46:17;-2.80;78.40
68215;DHT22;55036;52.138;5.236;2022-12-18T08:48:44;-2.80;78.40
68215;DHT22;55036;52.138;5.236;2022-12-18T08:51:10;-2.80;78.40
68215;DHT22;55036;52.138;5.236;2022-12-18T08:53:38;-2.70;78.20
68215;DHT22;55036;52.138;5.236;2022-12-18T08:56:05;-2.70;78.10
68215;DHT22;55036;52.138;5.236;2022-12-18T08:58:32;-2.70;78.60
68215;DHT22;55036;52.138;5.236;2022-12-18T09:01:03;-2.60;78.40
68215;DHT22;55036;52.138;5.236;2022-12-18T09:03:31;-2.60;78.80
68215;DHT22;55036;52.138;5.236;2022-12-18T09:05:59;-2.60;78.40
68215;DHT22;55036;52.138;5.236;2022-12-18T09:08:26;-2.60;78.40
68215;DHT22;55036;52.138;5.236;2022-12-18T09:10:53;-2.50;78.70
68215;DHT22;55036;52.138;5.236;2022-12-18T09:13:19;-2.40;78.80
68215;DHT22;55036;52.138;5.236;2022-12-18T09:15:50;-2.30;78.90
68215;DHT22;55036;52.138;5.236;2022-12-18T09:18:18;-2.30;78.70
68215;DHT22;55036;52.138;5.236;2022-12-18T09:20:45;-2.20;78.80
68215;DHT22;55036;52.138;5.236;2022-12-18T09:23:13;-2.30;79.10
68215;DHT22;55036;52.138;5.236;2022-12-18T09:25:40;-2.30;79.30
68215;DHT22;55036;52.138;5.236;2022-12-18T09:28:13;-2.20;79.20
68215;DHT22;55036;52.138;5.236;2022-12-18T09:30:48;-2.10;79.30
68215;DHT22;55036;52.138;5.236;2022-12-18T09:33:16;-2.10;79.40
68215;DHT22;55036;52.138;5.236;2022-12-18T09:35:44;-2.00;79.20
68215;DHT22;55036;52.138;5.236;2022-12-18T09:38:13;-1.90;79.20
68215;DHT22;55036;52.138;5.236;2022-12-18T09:40:52;-1.90;79.80
68215;DHT22;55036;52.138;5.236;2022-12-18T09:43:28;-1.90;79.60
68215;DHT22;55036;52.138;5.236;2022-12-18T09:46:03;-1.80;79.40
68215;DHT22;55036;52.138;5.236;2022-12-18T09:48:35;-1.70;79.40
68215;DHT22;55036;52.138;5.236;2022-12-18T09:51:10;-1.60;79.30
68215;DHT22;55036;52.138;5.236;2022-12-18T09:53:38;-1.60;79.50
68215;DHT22;55036;52.138;5.236;2022-12-18T09:56:15;-1.60;79.50
68215;DHT22;55036;52.138;5.236;2022-12-18T09:58:53;-1.50;79.50
68215;DHT22;55036;52.138;5.236;2022-12-18T10:01:22;-1.40;79.40
68215;DHT22;55036;52.138;5.236;2022-12-18T10:03:51;-1.30;79.50
68215;DHT22;55036;52.138;5.236;2022-12-18T10:06:29;-1.20;79.40
68215;DHT22;55036;52.138;5.236;2022-12-18T10:11:54;-1.20;79.50
68215;DHT22;55036;52.138;5.236;2022-12-18T10:14:34;-1.10;79.60
68215;DHT22;55036;52.138;5.236;2022-12-18T10:19:45;-1.10;79.80
68215;DHT22;55036;52.138;5.236;2022-12-18T10:22:25;-1.00;79.80
68215;DHT22;55036;52.138;5.236;2022-12-18T10:27:46;-1.00;79.50
68215;DHT22;55036;52.138;5.236;2022-12-18T10:30:15;-0.90;79.70
68215;DHT22;55036;52.138;5.236;2022-12-18T10:32:42;-0.90;79.80
68215;DHT22;55036;52.138;5.236;2022-12-18T10:35:21;-0.80;79.80
68215;DHT22;55036;52.138;5.236;2022-12-18T10:40:32;-0.70;79.80
68215;DHT22;55036;52.138;5.236;2022-12-18T10:43:13;-0.70;79.70
68215;DHT22;55036;52.138;5.236;2022-12-18T10:45:41;-0.60;79.70
68215;DHT22;55036;52.138;5.236;2022-12-18T10:48:21;-0.50;80.00
68215;DHT22;55036;52.138;5.236;2022-12-18T10:50:49;-0.40;79.50
68215;DHT22;55036;52.138;5.236;2022-12-18T10:53:37;-0.40;79.60
68215;DHT22;55036;52.138;5.236;2022-12-18T10:56:06;-0.40;79.60
68215;DHT22;55036;52.138;5.236;2022-12-18T10:58:34;-0.30;79.60
68215;DHT22;55036;52.138;5.236;2022-12-18T11:01:12;-0.20;79.50
68215;DHT22;55036;52.138;5.236;2022-12-18T11:03:43;-0.40;79.10
68215;DHT22;55036;52.138;5.236;2022-12-18T11:06:16;-0.20;79.50
68215;DHT22;55036;52.138;5.236;2022-12-18T11:08:46;-0.30;79.30
68215;DHT22;55036;52.138;5.236;2022-12-18T11:11:23;-0.20;79.10
68215;DHT22;55036;52.138;5.236;2022-12-18T11:14:03;-0.20;79.30
68215;DHT22;55036;52.138;5.236;2022-12-18T11:16:36;-0.20;79.10
68215;DHT22;55036;52.138;5.236;2022-12-18T11:19:33;-0.10;80.40
68215;DHT22;55036;52.138;5.236;2022-12-18T11:22:03;-0.10;78.90
68215;DHT22;55036;52.138;5.236;2022-12-18T11:24:35;0.00;79.00
68215;DHT22;55036;52.138;5.236;2022-12-18T11:27:04;0.00;78.70
68215;DHT22;55036;52.138;5.236;2022-12-18T11:29:34;0.10;78.60
68215;DHT22;55036;52.138;5.236;2022-12-18T11:32:25;0.10;78.60
68215;DHT22;55036;52.138;5.236;2022-12-18T11:35:40;0.00;78.70
68215;DHT22;55036;52.138;5.236;2022-12-18T11:43:52;0.20;77.70
68215;DHT22;55036;52.138;5.236;2022-12-18T11:46:32;0.20;78.00
68215;DHT22;55036;52.138;5.236;2022-12-18T11:49:20;0.20;77.80
68215;DHT22;55036;52.138;5.236;2022-12-18T11:54:18;0.30;77.70
68215;DHT22;55036;52.138;5.236;2022-12-18T11:56:58;0.30;77.50
68215;DHT22;55036;52.138;5.236;2022-12-18T11:59:46;0.30;77.10
68215;DHT22;55036;52.138;5.236;2022-12-18T12:04:54;0.40;77.30
68215;DHT22;55036;52.138;5.236;2022-12-18T12:07:47;0.50;76.60
68215;DHT22;55036;52.138;5.236;2022-12-18T12:16:15;0.60;77.10
68215;DHT22;55036;52.138;5.236;2022-12-18T12:19:02;0.50;76.60
68215;DHT22;55036;52.138;5.236;2022-12-18T12:21:41;0.50;75.90
68215;DHT22;55036;52.138;5.236;2022-12-18T12:24:20;0.60;76.50
68215;DHT22;55036;52.138;5.236;2022-12-18T12:38:27;0.70;75.80
68215;DHT22;55036;52.138;5.236;2022-12-18T12:41:02;0.70;73.90
68215;DHT22;55036;52.138;5.236;2022-12-18T12:43:43;0.70;75.60
68215;DHT22;55036;52.138;5.236;2022-12-18T12:46:34;0.80;75.90
68215;DHT22;55036;52.138;5.236;2022-12-18T12:49:04;0.90;74.60
68215;DHT22;55036;52.138;5.236;2022-12-18T12:51:38;0.80;74.70
68215;DHT22;55036;52.138;5.236;2022-12-18T12:54:16;0.80;74.60
68215;DHT22;55036;52.138;5.236;2022-12-18T12:57:07;0.90;74.50
68215;DHT22;55036;52.138;5.236;2022-12-18T12:59:46;0.90;75.20
68215;DHT22;55036;52.138;5.236;2022-12-18T13:02:48;0.90;73.90
68215;DHT22;55036;52.138;5.236;2022-12-18T13:05:23;0.90;74.20
68215;DHT22;55036;52.138;5.236;2022-12-18T13:08:05;0.80;73.80
68215;DHT22;55036;52.138;5.236;2022-12-18T13:10:39;0.90;73.90
68215;DHT22;55036;52.138;5.236;2022-12-18T13:15:48;0.90;74.10
68215;DHT22;55036;52.138;5.236;2022-12-18T13:18:20;1.00;74.50
68215;DHT22;55036;52.138;5.236;2022-12-18T13:23:33;1.00;74.30
68215;DHT22;55036;52.138;5.236;2022-12-18T13:33:45;1.20;74.20
68215;DHT22;55036;52.138;5.236;2022-12-18T13:36:33;1.20;74.20
68215;DHT22;55036;52.138;5.236;2022-12-18T13:42:31;1.10;73.20
68215;DHT22;55036;52.138;5.236;2022-12-18T13:45:39;1.10;73.70
68215;DHT22;55036;52.138;5.236;2022-12-18T13:48:15;1.20;73.90
68215;DHT22;55036;52.138;5.236;2022-12-18T13:50:43;1.20;73.90
68215;DHT22;55036;52.138;5.236;2022-12-18T13:53:23;1.10;73.50
68215;DHT22;55036;52.138;5.236;2022-12-18T13:55:51;1.10;73.50
68215;DHT22;55036;52.138;5.236;2022-12-18T13:58:18;1.10;72.80
68215;DHT22;55036;52.138;5.236;2022-12-18T14:00:45;1.00;73.20
68215;DHT22;55036;52.138;5.236;2022-12-18T14:03:19;1.10;73.50
68215;DHT22;55036;52.138;5.236;2022-12-18T14:06:08;1.00;72.20
68215;DHT22;55036;52.138;5.236;2022-12-18T14:08:39;1.00;73.10
68215;DHT22;55036;52.138;5.236;2022-12-18T14:11:07;1.00;73.30
68215;DHT22;55036;52.138;5.236;2022-12-18T14:13:46;1.10;73.60
68215;DHT22;55036;52.138;5.236;2022-12-18T14:16:15;1.10;73.10
68215;DHT22;55036;52.138;5.236;2022-12-18T14:18:50;1.00;72.10
68215;DHT22;55036;52.138;5.236;2022-12-18T14:24:06;1.10;73.00
68215;DHT22;55036;52.138;5.236;2022-12-18T14:26:40;0.90;72.10
68215;DHT22;55036;52.138;5.236;2022-12-18T14:29:27;0.90;72.40
68215;DHT22;55036;52.138;5.236;2022-12-18T14:32:05;1.00;72.40
68215;DHT22;55036;52.138;5.236;2022-12-18T14:34:40;1.00;73.20
68215;DHT22;55036;52.138;5.236;2022-12-18T14:37:10;1.10;72.90
68215;DHT22;55036;52.138;5.236;2022-12-18T14:39:38;1.20;73.00
68215;DHT22;55036;52.138;5.236;2022-12-18T14:42:05;1.20;72.50
68215;DHT22;55036;52.138;5.236;2022-12-18T14:44:31;1.20;72.20
68215;DHT22;55036;52.138;5.236;2022-12-18T14:47:16;1.20;72.90
68215;DHT22;55036;52.138;5.236;2022-12-18T14:49:43;1.20;72.80
68215;DHT22;55036;52.138;5.236;2022-12-18T14:52:27;1.20;72.20
68215;DHT22;55036;52.138;5.236;2022-12-18T14:54:55;1.20;72.30
68215;DHT22;55036;52.138;5.236;2022-12-18T14:57:34;1.10;72.30
68215;DHT22;55036;52.138;5.236;2022-12-18T15:00:07;1.20;72.50
68215;DHT22;55036;52.138;5.236;2022-12-18T15:02:38;1.20;72.30
68215;DHT22;55036;52.138;5.236;2022-12-18T15:05:24;1.20;72.40
68215;DHT22;55036;52.138;5.236;2022-12-18T15:07:53;1.10;72.00
68215;DHT22;55036;52.138;5.236;2022-12-18T15:10:22;1.20;71.70
68215;DHT22;55036;52.138;5.236;2022-12-18T15:20:44;1.10;71.50
68215;DHT22;55036;52.138;5.236;2022-12-18T15:23:18;1.10;72.00
68215;DHT22;55036;52.138;5.236;2022-12-18T15:26:05;1.10;71.50
68215;DHT22;55036;52.138;5.236;2022-12-18T15:28:38;1.10;71.50
68215;DHT22;55036;52.138;5.236;2022-12-18T15:36:22;1.10;71.50
68215;DHT22;55036;52.138;5.236;2022-12-18T15:38:53;1.10;71.40
68215;DHT22;55036;52.138;5.236;2022-12-18T15:41:25;1.10;72.50
68215;DHT22;55036;52.138;5.236;2022-12-18T15:43:52;1.00;71.80
68215;DHT22;55036;52.138;5.236;2022-12-18T15:46:24;1.10;71.50
68215;DHT22;55036;52.138;5.236;2022-12-18T15:48:52;1.10;71.50
68215;DHT22;55036;52.138;5.236;2022-12-18T15:51:32;1.20;71.50
68215;DHT22;55036;52.138;5.236;2022-12-18T15:54:02;1.10;71.40
68215;DHT22;55036;52.138;5.236;2022-12-18T15:56:30;1.10;71.10
68215;DHT22;55036;52.138;5.236;2022-12-18T15:59:20;1.10;71.40
68215;DHT22;55036;52.138;5.236;2022-12-18T16:01:49;1.10;71.30
68215;DHT22;55036;52.138;5.236;2022-12-18T16:04:18;1.10;71.50
68215;DHT22;55036;52.138;5.236;2022-12-18T16:06:48;1.10;71.30
68215;DHT22;55036;52.138;5.236;2022-12-18T16:09:36;1.20;71.50
68215;DHT22;55036;52.138;5.236;2022-12-18T16:12:03;1.20;71.00
68215;DHT22;55036;52.138;5.236;2022-12-18T16:14:31;1.20;71.20
68215;DHT22;55036;52.138;5.236;2022-12-18T16:17:05;1.10;70.60
68215;DHT22;55036;52.138;5.236;2022-12-18T16:19:32;1.20;70.60
68215;DHT22;55036;52.138;5.236;2022-12-18T16:21:58;1.20;71.40
68215;DHT22;55036;52.138;5.236;2022-12-18T16:24:30;1.20;71.00
68215;DHT22;55036;52.138;5.236;2022-12-18T16:26:59;1.20;70.40
68215;DHT22;55036;52.138;5.236;2022-12-18T16:29:27;1.20;70.90
68215;DHT22;55036;52.138;5.236;2022-12-18T16:31:55;1.20;70.80
68215;DHT22;55036;52.138;5.236;2022-12-18T16:34:27;1.20;71.10
68215;DHT22;55036;52.138;5.236;2022-12-18T16:37:00;1.20;70.70
68215;DHT22;55036;52.138;5.236;2022-12-18T16:39:32;1.20;70.50
68215;DHT22;55036;52.138;5.236;2022-12-18T16:42:02;1.30;70.70
68215;DHT22;55036;52.138;5.236;2022-12-18T16:44:32;1.30;70.20
68215;DHT22;55036;52.138;5.236;2022-12-18T16:46:59;1.20;71.60
68215;DHT22;55036;52.138;5.236;2022-12-18T16:49:28;1.30;71.00
68215;DHT22;55036;52.138;5.236;2022-12-18T16:51:55;1.30;70.60
68215;DHT22;55036;52.138;5.236;2022-12-18T16:54:22;1.30;70.70
68215;DHT22;55036;52.138;5.236;2022-12-18T16:56:50;1.20;70.40
68215;DHT22;55036;52.138;5.236;2022-12-18T16:59:18;1.20;70.50
68215;DHT22;55036;52.138;5.236;2022-12-18T17:01:45;1.20;70.60
68215;DHT22;55036;52.138;5.236;2022-12-18T17:04:13;1.20;70.70
68215;DHT22;55036;52.138;5.236;2022-12-18T17:06:42;1.20;70.70
68215;DHT22;55036;52.138;5.236;2022-12-18T17:09:14;1.20;71.00
68215;DHT22;55036;52.138;5.236;2022-12-18T17:11:45;1.20;70.60
68215;DHT22;55036;52.138;5.236;2022-12-18T17:14:17;1.20;70.70
68215;DHT22;55036;52.138;5.236;2022-12-18T17:16:44;1.20;71.10
68215;DHT22;55036;52.138;5.236;2022-12-18T17:19:12;1.20;70.70
68215;DHT22;55036;52.138;5.236;2022-12-18T17:21:43;1.20;70.70
68215;DHT22;55036;52.138;5.236;2022-12-18T17:24:10;1.20;71.10
68215;DHT22;55036;52.138;5.236;2022-12-18T17:26:37;1.30;71.10
68215;DHT22;55036;52.138;5.236;2022-12-18T17:29:04;1.30;70.80
68215;DHT22;55036;52.138;5.236;2022-12-18T17:31:31;1.30;70.90
68215;DHT22;55036;52.138;5.236;2022-12-18T17:33:58;1.40;70.40
68215;DHT22;55036;52.138;5.236;2022-12-18T17:36:26;1.30;70.90